Time;durP1;ratioP1;P1;durP2;ratioP2;P2;SDS_P1;SDS_P2;PMS_P1;PMS_P2;Temp;Humidity;BMP_temperature;BMP_pressure;BME280_temperature;BME280_humidity;BME280_pressure;Samples;Min_cycle;Max_cycle;Signal;HPM_P1;HPM_P2
2021/07/22 00:00:55;;;;;;;17.63;6.22;;;;;;;;;;5094441;28;20115;-51
2021/07/22 00:03:21;;;;;;;13.77;5.22;;;;;;;;;;5095866;28;20036;-51
2021/07/22 00:05:47;;;;;;;11.35;5.43;;;;;;;;;;5095627;28;20020;-51
2021/07/22 00:08:13;;;;;;;13.60;6.07;;;;;;;;;;5095096;28;20460;-51
2021/07/22 00:10:40;;;;;;;12.93;5.93;;;;;;;;;;5094664;28;20092;-51
2021/07/22 00:13:06;;;;;;;11.38;5.45;;;;;;;;;;5095475;28;20039;-51
2021/07/22 00:15:32;;;;;;;18.65;6.07;;;;;;;;;;5095561;28;20051;-51
2021/07/22 00:17:58;;;;;;;12.10;6.03;;;;;;;;;;5095024;28;20056;-51
2021/07/22 00:20:24;;;;;;;11.85;5.50;;;;;;;;;;5095058;28;20115;-51
2021/07/22 00:22:51;;;;;;;17.27;5.65;;;;;;;;;;5093969;28;20039;-51
2021/07/22 00:25:17;;;;;;;11.55;5.15;;;;;;;;;;5094020;28;20030;-51
2021/07/22 00:27:43;;;;;;;9.38;5.60;;;;;;;;;;5094419;28;20364;-51
2021/07/22 00:30:09;;;;;;;15.02;5.60;;;;;;;;;;5095035;28;20020;-51
2021/07/22 00:32:35;;;;;;;12.07;5.05;;;;;;;;;;5094144;28;20118;-51
2021/07/22 00:35:02;;;;;;;11.20;5.05;;;;;;;;;;5095077;28;20050;-51
2021/07/22 00:37:28;;;;;;;9.93;4.75;;;;;;;;;;5094264;28;20424;-51
2021/07/22 00:39:54;;;;;;;12.68;5.40;;;;;;;;;;5095070;28;20036;-51
2021/07/22 00:42:20;;;;;;;12.68;5.97;;;;;;;;;;5093941;28;20337;-51
2021/07/22 00:44:46;;;;;;;14.48;5.50;;;;;;;;;;5095186;28;20127;-51
2021/07/22 00:47:12;;;;;;;15.30;5.82;;;;;;;;;;5095061;28;20341;-51
2021/07/22 00:49:38;;;;;;;12.45;5.18;;;;;;;;;;5094233;28;20430;-51
2021/07/22 00:52:04;;;;;;;9.85;5.07;;;;;;;;;;5093310;28;20442;-51
2021/07/22 00:54:30;;;;;;;10.32;5.28;;;;;;;;;;5094989;28;20028;-51
2021/07/22 00:56:56;;;;;;;15.57;5.88;;;;;;;;;;5094307;28;20081;-51
2021/07/22 00:59:22;;;;;;;14.30;5.15;;;;;;;;;;5094502;28;20020;-51
2021/07/22 01:01:48;;;;;;;9.95;5.03;;;;;;;;;;5093821;28;20031;-51
2021/07/22 01:04:14;;;;;;;10.52;4.80;;;;;;;;;;5093451;28;20028;-51
2021/07/22 01:06:40;;;;;;;20.63;5.38;;;;;;;;;;5093126;28;20031;-51
2021/07/22 01:09:06;;;;;;;12.55;5.25;;;;;;;;;;5094151;28;20373;-51
2021/07/22 01:11:32;;;;;;;10.88;4.93;;;;;;;;;;5093462;28;20024;-51
2021/07/22 01:13:58;;;;;;;17.55;5.05;;;;;;;;;;5094230;28;20036;-51
2021/07/22 01:16:24;;;;;;;16.38;5.10;;;;;;;;;;5094303;28;20346;-51
2021/07/22 01:18:50;;;;;;;10.48;4.75;;;;;;;;;;5093936;28;20112;-51
2021/07/22 01:21:16;;;;;;;6.72;4.03;;;;;;;;;;5092929;28;20123;-51
2021/07/22 01:23:42;;;;;;;11.35;4.95;;;;;;;;;;5094284;28;20035;-51
2021/07/22 01:26:08;;;;;;;10.25;4.88;;;;;;;;;;5093820;28;20024;-52
2021/07/22 01:28:34;;;;;;;10.00;4.38;;;;;;;;;;5094039;28;20039;-51
2021/07/22 01:31:00;;;;;;;9.75;4.50;;;;;;;;;;5092973;28;20461;-52
2021/07/22 01:33:26;;;;;;;7.05;4.43;;;;;;;;;;5093861;28;20036;-51
2021/07/22 01:35:52;;;;;;;7.80;4.63;;;;;;;;;;5093425;28;20020;-52
2021/07/22 01:38:18;;;;;;;10.23;4.72;;;;;;;;;;5093637;28;20028;-51
2021/07/22 01:40:44;;;;;;;10.07;4.80;;;;;;;;;;5093102;28;20020;-51
2021/07/22 01:43:10;;;;;;;8.73;4.45;;;;;;;;;;5077007;28;20032;-51
2021/07/22 01:45:36;;;;;;;10.63;5.35;;;;;;;;;;5073607;28;20054;-51
2021/07/22 01:48:02;;;;;;;8.73;4.63;;;;;;;;;;5073011;28;20045;-51
2021/07/22 01:50:28;;;;;;;8.07;4.40;;;;;;;;;;5072509;28;20468;-51
2021/07/22 01:52:54;;;;;;;9.38;3.97;;;;;;;;;;5072805;28;20032;-51
2021/07/22 01:55:20;;;;;;;13.25;4.30;;;;;;;;;;5073804;28;20052;-51
2021/07/22 01:57:47;;;;;;;8.90;4.45;;;;;;;;;;5073286;28;20086;-51
2021/07/22 02:00:13;;;;;;;8.38;4.78;;;;;;;;;;5072804;28;20020;-51
2021/07/22 02:02:41;;;;;;;10.27;4.60;;;;;;;;;;5072238;28;20029;-51
2021/07/22 02:05:07;;;;;;;9.75;4.20;;;;;;;;;;5072880;28;20079;-51
2021/07/22 02:07:33;;;;;;;9.38;4.75;;;;;;;;;;5072840;28;20355;-51
2021/07/22 02:09:59;;;;;;;7.03;4.18;;;;;;;;;;5072902;28;20081;-51
2021/07/22 02:12:25;;;;;;;8.07;3.67;;;;;;;;;;5072744;28;20381;-51
2021/07/22 02:14:51;;;;;;;6.20;3.65;;;;;;;;;;5068729;28;20040;-51
2021/07/22 02:17:18;;;;;;;9.00;4.00;;;;;;;;;;5089748;28;20034;-51
2021/07/22 02:19:45;;;;;;;8.27;4.30;;;;;;;;;;5092710;28;20024;-51
2021/07/22 02:22:11;;;;;;;8.30;4.43;;;;;;;;;;5091937;28;20055;-51
2021/07/22 02:24:37;;;;;;;7.45;4.00;;;;;;;;;;5093413;28;20048;-51
2021/07/22 02:27:03;;;;;;;7.15;3.90;;;;;;;;;;5092933;28;20442;-51
2021/07/22 02:29:29;;;;;;;7.13;4.10;;;;;;;;;;5092862;28;20031;-51
2021/07/22 02:31:55;;;;;;;12.93;4.50;;;;;;;;;;5091974;28;20024;-51
2021/07/22 02:34:21;;;;;;;9.82;4.20;;;;;;;;;;5093345;28;20065;-51
2021/07/22 02:36:46;;;;;;;6.40;3.47;;;;;;;;;;5092429;28;20043;-51
2021/07/22 02:39:12;;;;;;;9.20;4.63;;;;;;;;;;5093290;28;20023;-51
2021/07/22 02:41:38;;;;;;;7.30;3.92;;;;;;;;;;5092246;28;20485;-51
2021/07/22 02:44:05;;;;;;;17.73;4.82;;;;;;;;;;5092880;28;20025;-51
2021/07/22 02:46:31;;;;;;;13.20;4.78;;;;;;;;;;5092598;28;20469;-51
2021/07/22 02:48:57;;;;;;;9.40;4.53;;;;;;;;;;5092825;28;20051;-51
2021/07/22 02:51:24;;;;;;;8.70;4.45;;;;;;;;;;5077433;28;20047;-51
2021/07/22 02:53:50;;;;;;;13.65;3.83;;;;;;;;;;5072560;28;20020;-51
2021/07/22 02:56:16;;;;;;;10.23;4.13;;;;;;;;;;5072634;28;20024;-51
2021/07/22 02:58:42;;;;;;;9.05;4.47;;;;;;;;;;5072204;28;20024;-51
2021/07/22 03:01:11;;;;;;;9.25;4.50;;;;;;;;;;5071336;28;20123;-51
2021/07/22 03:03:37;;;;;;;4.90;3.40;;;;;;;;;;5072855;28;20024;-51
2021/07/22 03:06:03;;;;;;;7.07;4.07;;;;;;;;;;5072227;28;20073;-51
2021/07/22 03:08:29;;;;;;;8.18;4.32;;;;;;;;;;5072391;28;20048;-51
2021/07/22 03:10:56;;;;;;;10.18;4.20;;;;;;;;;;5071511;28;20108;-51
2021/07/22 03:13:22;;;;;;;9.52;4.53;;;;;;;;;;5075015;28;20032;-51
2021/07/22 03:15:48;;;;;;;8.93;4.63;;;;;;;;;;5076458;28;20052;-51
2021/07/22 03:18:14;;;;;;;10.13;4.25;;;;;;;;;;5076050;28;20060;-51
2021/07/22 03:20:40;;;;;;;10.60;4.60;;;;;;;;;;5075289;28;20032;-51
2021/07/22 03:23:06;;;;;;;8.10;3.83;;;;;;;;;;5076181;28;20431;-51
2021/07/22 03:25:32;;;;;;;7.68;4.55;;;;;;;;;;5070841;28;20024;-51
2021/07/22 03:28:00;;;;;;;12.43;4.43;;;;;;;;;;5075939;28;20036;-51
2021/07/22 03:30:27;;;;;;;8.85;4.07;;;;;;;;;;5075643;28;20111;-51
2021/07/22 03:32:53;;;;;;;9.00;4.20;;;;;;;;;;5091267;28;20454;-51
2021/07/22 03:35:19;;;;;;;9.25;4.45;;;;;;;;;;5096229;28;20098;-51
2021/07/22 03:37:45;;;;;;;8.20;4.57;;;;;;;;;;5095505;28;20111;-51
2021/07/22 03:40:11;;;;;;;7.88;4.25;;;;;;;;;;5095818;28;20032;-51
2021/07/22 03:42:37;;;;;;;9.55;4.65;;;;;;;;;;5094566;28;20024;-51
2021/07/22 03:45:03;;;;;;;9.25;3.75;;;;;;;;;;5079835;28;20350;-51
2021/07/22 03:47:29;;;;;;;7.88;4.45;;;;;;;;;;5075415;28;20028;-51
2021/07/22 03:49:56;;;;;;;8.23;4.38;;;;;;;;;;5075559;28;20035;-51
2021/07/22 03:52:23;;;;;;;7.88;4.35;;;;;;;;;;5073973;28;20025;-51
2021/07/22 03:54:49;;;;;;;10.02;4.43;;;;;;;;;;5075353;28;20047;-51
2021/07/22 03:57:15;;;;;;;8.85;4.60;;;;;;;;;;5074277;28;20028;-51
2021/07/22 03:59:41;;;;;;;13.13;4.10;;;;;;;;;;5075637;28;20028;-51
2021/07/22 04:02:07;;;;;;;7.97;3.95;;;;;;;;;;5074439;28;20021;-51
2021/07/22 04:04:33;;;;;;;10.77;4.88;;;;;;;;;;5075175;28;20028;-51
2021/07/22 04:07:00;;;;;;;9.07;4.00;;;;;;;;;;5075033;28;20074;-51
2021/07/22 04:09:26;;;;;;;10.07;4.13;;;;;;;;;;5075238;28;20188;-51
2021/07/22 04:11:52;;;;;;;7.70;4.22;;;;;;;;;;5074257;28;20111;-51
2021/07/22 04:14:18;;;;;;;11.73;4.57;;;;;;;;;;5075212;28;20083;-51
2021/07/22 04:16:45;;;;;;;15.15;4.57;;;;;;;;;;5075452;28;20029;-51
2021/07/22 04:19:11;;;;;;;11.18;4.32;;;;;;;;;;5075180;28;20055;-51
2021/07/22 04:21:37;;;;;;;6.32;3.58;;;;;;;;;;5074519;28;20115;-51
2021/07/22 04:24:03;;;;;;;6.88;4.50;;;;;;;;;;5073504;28;20217;-51
2021/07/22 04:26:29;;;;;;;9.13;4.40;;;;;;;;;;5075414;28;20036;-51
2021/07/22 04:28:55;;;;;;;11.07;4.10;;;;;;;;;;5074876;28;20037;-51
2021/07/22 04:31:21;;;;;;;8.02;4.28;;;;;;;;;;5074487;28;20024;-51
2021/07/22 04:33:50;;;;;;;7.32;4.32;;;;;;;;;;5076491;28;20024;-52
2021/07/22 04:36:16;;;;;;;14.15;4.70;;;;;;;;;;5078609;28;20036;-51
2021/07/22 04:38:42;;;;;;;9.23;4.25;;;;;;;;;;5086341;28;20047;-51
2021/07/22 04:41:08;;;;;;;14.20;4.35;;;;;;;;;;5090362;28;20035;-51
2021/07/22 04:43:35;;;;;;;7.15;4.25;;;;;;;;;;5093799;28;20039;-51
2021/07/22 04:46:01;;;;;;;14.07;5.20;;;;;;;;;;5092074;28;20028;-52
2021/07/22 04:48:27;;;;;;;18.40;4.95;;;;;;;;;;5093651;28;20070;-51
2021/07/22 04:50:53;;;;;;;9.25;4.32;;;;;;;;;;5094261;28;20458;-52
2021/07/22 04:53:19;;;;;;;15.05;3.90;;;;;;;;;;5094568;28;20028;-52
2021/07/22 04:55:45;;;;;;;9.70;4.18;;;;;;;;;;5094295;28;20031;-51
2021/07/22 04:58:11;;;;;;;12.65;4.32;;;;;;;;;;5079400;28;20046;-52
2021/07/22 05:00:37;;;;;;;7.90;4.45;;;;;;;;;;5079027;28;20024;-51
2021/07/22 05:03:03;;;;;;;10.60;4.53;;;;;;;;;;5081281;28;20547;-51
2021/07/22 05:05:30;;;;;;;6.30;3.80;;;;;;;;;;5081807;28;20020;-51
2021/07/22 05:07:57;;;;;;;7.40;3.50;;;;;;;;;;5074119;28;20032;-51
2021/07/22 05:10:23;;;;;;;9.90;4.47;;;;;;;;;;5073859;28;20071;-52
2021/07/22 05:12:57;;;;;;;19.35;5.13;;;;;;;;;;5073291;28;20017;-51
2021/07/22 05:15:23;;;;;;;8.02;4.80;;;;;;;;;;5073696;28;20028;-51
2021/07/22 05:17:49;;;;;;;8.68;4.38;;;;;;;;;;5073911;28;20020;-51
2021/07/22 05:20:15;;;;;;;8.05;4.05;;;;;;;;;;5073904;28;20032;-51
2021/07/22 05:22:41;;;;;;;9.73;4.95;;;;;;;;;;5072474;28;20036;-51
2021/07/22 05:25:07;;;;;;;12.10;4.90;;;;;;;;;;5073470;28;20052;-51
2021/07/22 05:27:33;;;;;;;11.73;4.50;;;;;;;;;;5073468;28;20031;-51
2021/07/22 05:30:00;;;;;;;10.00;4.75;;;;;;;;;;5073531;28;20101;-51
2021/07/22 05:32:26;;;;;;;15.25;4.35;;;;;;;;;;5071557;28;20028;-51
2021/07/22 05:34:52;;;;;;;10.15;4.38;;;;;;;;;;5072533;28;20060;-51
2021/07/22 05:37:18;;;;;;;12.68;4.78;;;;;;;;;;5072360;28;20021;-52
2021/07/22 05:39:44;;;;;;;10.45;4.28;;;;;;;;;;5072844;28;20123;-52
2021/07/22 05:42:10;;;;;;;9.05;4.45;;;;;;;;;;5073112;28;20021;-52
2021/07/22 05:44:36;;;;;;;10.45;4.55;;;;;;;;;;5072801;28;20030;-51
2021/07/22 05:47:02;;;;;;;8.63;5.07;;;;;;;;;;5073668;28;20028;-51
2021/07/22 05:49:28;;;;;;;12.50;4.97;;;;;;;;;;5072990;28;20442;-51
2021/07/22 05:51:54;;;;;;;6.70;4.45;;;;;;;;;;5072624;28;20464;-51
2021/07/22 05:54:20;;;;;;;9.13;3.97;;;;;;;;;;5073248;28;20464;-51
2021/07/22 05:56:46;;;;;;;9.70;4.45;;;;;;;;;;5073145;28;20043;-51
2021/07/22 05:59:12;;;;;;;11.70;5.63;;;;;;;;;;5072419;28;20109;-51
2021/07/22 06:01:38;;;;;;;8.57;4.28;;;;;;;;;;5072484;28;20496;-51
2021/07/22 06:04:04;;;;;;;11.38;4.07;;;;;;;;;;5073132;28;20451;-51
2021/07/22 06:06:30;;;;;;;11.68;4.60;;;;;;;;;;5073683;28;20028;-51
2021/07/22 06:08:57;;;;;;;18.23;4.80;;;;;;;;;;5072943;28;20036;-51
2021/07/22 06:11:23;;;;;;;15.82;5.15;;;;;;;;;;5072516;28;20020;-51
2021/07/22 06:13:49;;;;;;;12.52;4.97;;;;;;;;;;5072667;28;20409;-51
2021/07/22 06:16:15;;;;;;;14.45;5.15;;;;;;;;;;5073126;28;20032;-52
2021/07/22 06:18:42;;;;;;;7.32;4.13;;;;;;;;;;5072912;28;20066;-52
2021/07/22 06:21:12;;;;;;;10.07;4.30;;;;;;;;;;5072231;28;20028;-51
2021/07/22 06:23:38;;;;;;;6.88;4.40;;;;;;;;;;5072969;28;20030;-51
2021/07/22 06:26:04;;;;;;;9.15;4.38;;;;;;;;;;5072586;28;20028;-51
2021/07/22 06:28:30;;;;;;;9.05;4.72;;;;;;;;;;5072466;28;20093;-52
2021/07/22 06:30:56;;;;;;;11.05;5.28;;;;;;;;;;5072314;28;20370;-51
2021/07/22 06:33:22;;;;;;;11.45;4.80;;;;;;;;;;5072749;28;20025;-51
2021/07/22 06:35:48;;;;;;;19.58;5.32;;;;;;;;;;5072839;28;20029;-51
2021/07/22 06:38:15;;;;;;;7.70;4.32;;;;;;;;;;5072680;28;20354;-51
2021/07/22 06:40:41;;;;;;;9.95;4.43;;;;;;;;;;5072015;28;20059;-52
2021/07/22 06:43:08;;;;;;;12.48;4.68;;;;;;;;;;5073029;28;20021;-51
2021/07/22 06:45:34;;;;;;;10.38;5.30;;;;;;;;;;5072588;28;20453;-51
2021/07/22 06:48:01;;;;;;;12.65;5.10;;;;;;;;;;5076555;28;20115;-51
2021/07/22 06:50:27;;;;;;;10.60;5.15;;;;;;;;;;5076612;28;20016;-51
2021/07/22 06:52:53;;;;;;;9.43;4.53;;;;;;;;;;5076528;28;20021;-51
2021/07/22 06:55:19;;;;;;;10.35;4.85;;;;;;;;;;5076159;28;20082;-52
2021/07/22 06:57:45;;;;;;;9.98;5.28;;;;;;;;;;5076425;28;20028;-51
2021/07/22 07:00:11;;;;;;;7.65;4.18;;;;;;;;;;5076422;28;20044;-51
2021/07/22 07:02:37;;;;;;;9.15;4.47;;;;;;;;;;5075945;28;20035;-51
2021/07/22 07:05:04;;;;;;;8.05;4.68;;;;;;;;;;5076372;28;20137;-51
2021/07/22 07:07:30;;;;;;;10.02;4.53;;;;;;;;;;5076414;28;20032;-52
2021/07/22 07:09:56;;;;;;;9.82;4.65;;;;;;;;;;5075559;28;20098;-51
2021/07/22 07:12:22;;;;;;;19.05;5.93;;;;;;;;;;5075683;28;20024;-51
2021/07/22 07:14:48;;;;;;;9.73;5.05;;;;;;;;;;5076381;28;20547;-51
2021/07/22 07:17:14;;;;;;;11.80;5.22;;;;;;;;;;5076424;28;20025;-52
2021/07/22 07:19:40;;;;;;;9.65;5.03;;;;;;;;;;5076218;28;20056;-52
2021/07/22 07:22:06;;;;;;;10.50;5.38;;;;;;;;;;5074785;28;20481;-51
2021/07/22 07:24:32;;;;;;;10.20;5.07;;;;;;;;;;5075776;28;20186;-52
2021/07/22 07:26:58;;;;;;;16.88;6.13;;;;;;;;;;5075798;28;20089;-52
2021/07/22 07:29:24;;;;;;;11.70;5.75;;;;;;;;;;5076048;28;20127;-52
2021/07/22 07:31:50;;;;;;;12.20;5.70;;;;;;;;;;5075197;28;20016;-52
2021/07/22 07:34:16;;;;;;;12.00;5.90;;;;;;;;;;5076004;28;20043;-52
2021/07/22 07:36:45;;;;;;;10.18;5.85;;;;;;;;;;5075920;28;20020;-52
2021/07/22 07:39:12;;;;;;;9.35;4.97;;;;;;;;;;5074761;28;20032;-52
2021/07/22 07:41:38;;;;;;;10.60;5.22;;;;;;;;;;5075240;28;20107;-52
2021/07/22 07:44:05;;;;;;;15.18;6.45;;;;;;;;;;5075853;28;20278;-52
2021/07/22 07:46:31;;;;;;;10.88;6.10;;;;;;;;;;5075895;28;20111;-51
2021/07/22 07:48:56;;;;;;;16.33;6.93;;;;;;;;;;5075572;28;20230;-51
2021/07/22 07:51:22;;;;;;;14.30;6.35;;;;;;;;;;5074718;28;20032;-51
2021/07/22 07:53:50;;;;;;;11.52;5.78;;;;;;;;;;5082628;28;20023;-51
2021/07/22 07:56:16;;;;;;;12.77;6.15;;;;;;;;;;5095097;28;20089;-52
2021/07/22 07:58:42;;;;;;;14.20;6.15;;;;;;;;;;5094101;28;20024;-52
2021/07/22 08:01:08;;;;;;;16.17;6.90;;;;;;;;;;5094625;28;20028;-51
2021/07/22 08:03:34;;;;;;;14.38;6.43;;;;;;;;;;5095698;28;20084;-52
2021/07/22 08:06:00;;;;;;;16.52;6.55;;;;;;;;;;5095456;28;20434;-52
2021/07/22 08:08:26;;;;;;;12.45;7.63;;;;;;;;;;5095566;28;20036;-52
2021/07/22 08:10:57;;;;;;;17.92;6.90;;;;;;;;;;5094671;28;20037;-52
2021/07/22 08:13:23;;;;;;;13.85;7.10;;;;;;;;;;5095268;28;20031;-51
2021/07/22 08:15:49;;;;;;;13.05;6.80;;;;;;;;;;5095081;28;20020;-52
2021/07/22 08:18:15;;;;;;;22.60;7.60;;;;;;;;;;5095793;28;20229;-51
2021/07/22 08:20:41;;;;;;;13.90;6.78;;;;;;;;;;5094439;28;20031;-53
2021/07/22 08:23:07;;;;;;;11.35;6.18;;;;;;;;;;5095409;28;20024;-51
2021/07/22 08:25:33;;;;;;;15.90;6.18;;;;;;;;;;5095174;28;20043;-52
2021/07/22 08:27:59;;;;;;;16.65;6.97;;;;;;;;;;5094646;28;20020;-51
2021/07/22 08:30:25;;;;;;;12.80;6.88;;;;;;;;;;5095389;28;20016;-51
2021/07/22 08:32:51;;;;;;;12.82;6.53;;;;;;;;;;5094634;28;20027;-51
2021/07/22 08:35:17;;;;;;;14.45;7.13;;;;;;;;;;5095022;28;20024;-51
2021/07/22 08:37:43;;;;;;;15.85;6.93;;;;;;;;;;5094572;28;20034;-52
2021/07/22 08:40:10;;;;;;;15.90;7.32;;;;;;;;;;5094978;28;20019;-52
2021/07/22 08:42:38;;;;;;;13.50;6.07;;;;;;;;;;5094045;28;20039;-51
2021/07/22 08:45:05;;;;;;;13.05;6.35;;;;;;;;;;5094898;28;20043;-52
2021/07/22 08:47:31;;;;;;;23.90;7.38;;;;;;;;;;5094805;28;20090;-51
2021/07/22 08:49:57;;;;;;;15.00;6.93;;;;;;;;;;5089318;28;20365;-52
2021/07/22 08:52:23;;;;;;;15.27;6.68;;;;;;;;;;5081837;28;20099;-52
2021/07/22 08:54:49;;;;;;;12.80;6.68;;;;;;;;;;5084990;28;20166;-52
2021/07/22 08:57:17;;;;;;;12.93;6.00;;;;;;;;;;5081155;28;20091;-51
2021/07/22 08:59:43;;;;;;;16.13;7.05;;;;;;;;;;5074199;28;20052;-52
2021/07/22 09:02:12;;;;;;;11.98;5.85;;;;;;;;;;5073648;28;20388;-51
2021/07/22 09:04:56;;;;;;;12.35;6.05;;;;;;;;;;5074299;28;20034;-51
2021/07/22 09:07:22;;;;;;;10.02;5.53;;;;;;;;;;5074541;28;20035;-52
2021/07/22 09:10:09;;;;;;;12.77;6.03;;;;;;;;;;5073637;28;20129;-51
2021/07/22 09:12:45;;;;;;;10.73;6.15;;;;;;;;;;5073437;28;20110;-52
2021/07/22 09:15:14;;;;;;;10.32;5.97;;;;;;;;;;5073958;28;20036;-52
2021/07/22 09:17:40;;;;;;;11.77;6.38;;;;;;;;;;5074303;28;20024;-51
2021/07/22 09:20:10;;;;;;;16.90;6.53;;;;;;;;;;5073220;28;20028;-51
2021/07/22 09:22:37;;;;;;;15.35;6.38;;;;;;;;;;5073180;28;20040;-52
2021/07/22 09:25:04;;;;;;;17.42;7.13;;;;;;;;;;5074215;28;20240;-52
2021/07/22 09:27:34;;;;;;;13.88;6.28;;;;;;;;;;5073573;28;20028;-51
2021/07/22 09:30:00;;;;;;;12.52;5.32;;;;;;;;;;5073565;28;20358;-51
2021/07/22 09:32:30;;;;;;;15.75;6.28;;;;;;;;;;5073053;28;20031;-53
2021/07/22 09:35:11;;;;;;;15.60;6.03;;;;;;;;;;5073345;28;20025;-51
2021/07/22 09:37:42;;;;;;;11.20;5.22;;;;;;;;;;5073787;28;20139;-51
2021/07/22 09:40:08;;;;;;;9.43;5.28;;;;;;;;;;5073619;28;20444;-52
2021/07/22 09:42:48;;;;;;;10.93;5.57;;;;;;;;;;5072022;28;20438;-52
2021/07/22 09:45:18;;;;;;;8.82;5.25;;;;;;;;;;5073261;28;20035;-51
2021/07/22 09:47:45;;;;;;;17.52;6.35;;;;;;;;;;5073156;28;20024;-51
2021/07/22 09:50:15;;;;;;;9.32;5.55;;;;;;;;;;5073131;28;20358;-51
2021/07/22 09:52:41;;;;;;;;;;;;;;;;;;5072989;28;20028;-51
2021/07/22 09:55:23;;;;;;;9.32;5.00;;;;;;;;;;5073435;28;20007;-52
2021/07/22 09:57:52;;;;;;;9.70;5.75;;;;;;;;;;5073119;28;20032;-51
2021/07/22 10:00:18;;;;;;;11.48;5.43;;;;;;;;;;5073329;28;20052;-51
2021/07/22 10:02:45;;;;;;;12.73;6.00;;;;;;;;;;5072571;28;20044;-51
2021/07/22 10:05:13;;;;;;;10.30;5.53;;;;;;;;;;5073468;28;20024;-52
2021/07/22 10:07:40;;;;;;;16.20;5.75;;;;;;;;;;5073105;28;20039;-52
2021/07/22 10:10:06;;;;;;;11.85;6.32;;;;;;;;;;5072306;28;20043;-52
2021/07/22 10:12:34;;;;;;;13.25;5.70;;;;;;;;;;5072528;28;20059;-52
2021/07/22 10:15:01;;;;;;;12.23;5.68;;;;;;;;;;5073380;28;20244;-52
2021/07/22 10:17:27;;;;;;;14.77;5.72;;;;;;;;;;5073127;28;20086;-52
2021/07/22 10:19:58;;;;;;;9.55;5.38;;;;;;;;;;5072782;28;20029;-52
2021/07/22 10:22:24;;;;;;;11.65;5.80;;;;;;;;;;5071512;28;20064;-52
2021/07/22 10:24:51;;;;;;;8.02;4.97;;;;;;;;;;5073100;28;20028;-52
2021/07/22 10:27:17;;;;;;;9.82;4.70;;;;;;;;;;5072963;28;20093;-52
2021/07/22 10:29:44;;;;;;;10.38;4.93;;;;;;;;;;5072859;28;20071;-52
2021/07/22 10:32:10;;;;;;;14.10;5.47;;;;;;;;;;5071872;28;20021;-52
2021/07/22 10:34:37;;;;;;;14.93;5.45;;;;;;;;;;5073039;28;20030;-52
2021/07/22 10:37:03;;;;;;;14.23;5.40;;;;;;;;;;5072409;28;20040;-51
2021/07/22 10:39:48;;;;;;;15.20;6.07;;;;;;;;;;5072776;28;20031;-51
2021/07/22 10:42:33;;;;;;;12.32;5.55;;;;;;;;;;5072205;28;20048;-51
2021/07/22 10:44:59;;;;;;;10.02;5.22;;;;;;;;;;5072894;28;20062;-52
2021/07/22 10:47:25;;;;;;;11.40;6.32;;;;;;;;;;5072302;28;20427;-52
2021/07/22 10:49:51;;;;;;;14.65;5.25;;;;;;;;;;5072898;28;20078;-52
2021/07/22 10:52:36;;;;;;;12.23;5.88;;;;;;;;;;5071898;28;20032;-52
2021/07/22 10:55:03;;;;;;;10.52;5.82;;;;;;;;;;5072309;28;20518;-52
2021/07/22 10:57:28;;;;;;;14.02;6.50;;;;;;;;;;5072401;28;20020;-52
2021/07/22 10:59:55;;;;;;;10.05;5.70;;;;;;;;;;5072549;28;20358;-52
2021/07/22 11:02:40;;;;;;;15.38;6.38;;;;;;;;;;5071682;28;20290;-51
2021/07/22 11:05:07;;;;;;;13.38;5.57;;;;;;;;;;5072629;28;20037;-52
2021/07/22 11:07:33;;;;;;;9.93;5.72;;;;;;;;;;5072011;28;20473;-51
2021/07/22 11:09:59;;;;;;;10.85;6.15;;;;;;;;;;5072264;28;20032;-51
2021/07/22 11:12:39;;;;;;;10.75;5.20;;;;;;;;;;5071597;28;20028;-51
2021/07/22 11:15:06;;;;;;;10.82;5.45;;;;;;;;;;5072638;28;20031;-51
2021/07/22 11:17:33;;;;;;;10.70;5.80;;;;;;;;;;5072184;28;20147;-51
2021/07/22 11:20:19;;;;;;;17.73;5.97;;;;;;;;;;5072072;28;20404;-51
2021/07/22 11:22:46;;;;;;;16.00;6.47;;;;;;;;;;5067250;28;20037;-52
2021/07/22 11:25:13;;;;;;;17.52;6.82;;;;;;;;;;5072639;28;20031;-51
2021/07/22 11:27:45;;;;;;;13.80;5.88;;;;;;;;;;5072401;28;20066;-52
2021/07/22 11:30:12;;;;;;;12.73;5.93;;;;;;;;;;5072411;28;20383;-51
2021/07/22 11:32:38;;;;;;;9.93;6.00;;;;;;;;;;5071444;28;20021;-51
2021/07/22 11:35:04;;;;;;;11.63;6.18;;;;;;;;;;5076266;28;20025;-51
2021/07/22 11:37:30;;;;;;;12.40;6.35;;;;;;;;;;5075655;28;20439;-52
2021/07/22 11:39:56;;;;;;;10.30;5.70;;;;;;;;;;5075829;28;20412;-51
2021/07/22 11:42:22;;;;;;;12.15;6.05;;;;;;;;;;5073454;28;20062;-51
2021/07/22 11:45:02;;;;;;;13.75;6.65;;;;;;;;;;5075806;28;20039;-51
2021/07/22 11:47:31;;;;;;;13.57;5.53;;;;;;;;;;5075407;28;20029;-52
2021/07/22 11:49:57;;;;;;;25.88;6.35;;;;;;;;;;5075486;28;20043;-51
2021/07/22 11:52:27;;;;;;;9.95;5.78;;;;;;;;;;5074781;28;20028;-51
2021/07/22 11:55:06;;;;;;;13.70;6.70;;;;;;;;;;5075809;28;20028;-52
2021/07/22 11:57:50;;;;;;;12.00;6.32;;;;;;;;;;5075234;28;20024;-52
2021/07/22 12:00:22;;;;;;;11.60;5.97;;;;;;;;;;5075493;28;20081;-51
2021/07/22 12:02:55;;;;;;;15.90;6.78;;;;;;;;;;5074319;28;20028;-52
2021/07/22 12:05:25;;;;;;;16.67;6.22;;;;;;;;;;5075731;28;20024;-51
2021/07/22 12:07:53;;;;;;;12.20;5.78;;;;;;;;;;5074999;28;20434;-51
2021/07/22 12:10:28;;;;;;;9.23;5.60;;;;;;;;;;5075717;28;20033;-51
2021/07/22 12:12:58;;;;;;;9.60;5.57;;;;;;;;;;5074600;28;20052;-51
2021/07/22 12:15:24;;;;;;;14.05;5.80;;;;;;;;;;5075364;28;20056;-51
2021/07/22 12:17:51;;;;;;;15.50;6.25;;;;;;;;;;5075186;28;20063;-52
2021/07/22 12:20:17;;;;;;;16.17;7.00;;;;;;;;;;5074981;28;20029;-51
2021/07/22 12:22:43;;;;;;;10.82;5.68;;;;;;;;;;5073817;28;20029;-52
2021/07/22 12:25:12;;;;;;;12.60;6.68;;;;;;;;;;5075235;28;20069;-52
2021/07/22 12:27:43;;;;;;;13.88;6.35;;;;;;;;;;5074997;28;20438;-52
2021/07/22 12:30:21;;;;;;;12.20;6.55;;;;;;;;;;5074760;28;20036;-52
2021/07/22 12:32:57;;;;;;;14.73;6.35;;;;;;;;;;5074120;28;20020;-52
2021/07/22 12:35:38;;;;;;;13.43;5.88;;;;;;;;;;5074715;28;20094;-51
2021/07/22 12:38:04;;;;;;;14.88;6.22;;;;;;;;;;5074732;28;20028;-52
2021/07/22 12:40:50;;;;;;;13.88;5.95;;;;;;;;;;5074289;28;20111;-52
2021/07/22 12:43:18;;;;;;;10.48;5.90;;;;;;;;;;5070421;28;20120;-52
2021/07/22 12:45:45;;;;;;;13.40;6.35;;;;;;;;;;5074062;28;20036;-52
2021/07/22 12:48:14;;;;;;;11.02;5.97;;;;;;;;;;5074698;28;20327;-51
2021/07/22 12:50:40;;;;;;;10.90;5.72;;;;;;;;;;5073646;28;20024;-51
2021/07/22 12:53:07;;;;;;;9.70;5.95;;;;;;;;;;5074436;28;20107;-52
2021/07/22 12:55:33;;;;;;;13.32;6.35;;;;;;;;;;5074460;28;20032;-52
2021/07/22 12:57:59;;;;;;;13.63;6.72;;;;;;;;;;5074264;28;20027;-51
2021/07/22 13:00:25;;;;;;;10.27;5.60;;;;;;;;;;5074473;28;20106;-52
2021/07/22 13:02:58;;;;;;;10.05;6.10;;;;;;;;;;5073637;28;20021;-52
2021/07/22 13:05:25;;;;;;;11.10;5.85;;;;;;;;;;5074428;28;20047;-51
2021/07/22 13:07:51;;;;;;;9.20;5.22;;;;;;;;;;5074144;28;20024;-52
2021/07/22 13:10:18;;;;;;;12.85;6.25;;;;;;;;;;5074201;28;20038;-52
2021/07/22 13:12:44;;;;;;;13.10;5.82;;;;;;;;;;5073165;28;20025;-52
2021/07/22 13:15:10;;;;;;;10.18;5.88;;;;;;;;;;5074246;28;20078;-52
2021/07/22 13:17:39;;;;;;;29.77;11.95;;;;;;;;;;5074208;28;20059;-51
2021/07/22 13:20:09;;;;;;;17.60;7.50;;;;;;;;;;5073753;28;20028;-51
2021/07/22 13:22:35;;;;;;;18.50;7.70;;;;;;;;;;5073235;28;20060;-52
2021/07/22 13:25:01;;;;;;;19.35;6.32;;;;;;;;;;5073398;28;20099;-52
2021/07/22 13:27:27;;;;;;;15.18;6.55;;;;;;;;;;5073983;28;20452;-51
2021/07/22 13:29:53;;;;;;;11.45;5.50;;;;;;;;;;5073442;28;20025;-52
2021/07/22 13:32:19;;;;;;;16.60;6.47;;;;;;;;;;5071729;28;20098;-52
2021/07/22 13:34:45;;;;;;;18.58;8.23;;;;;;;;;;5073269;28;20115;-52
2021/07/22 13:37:11;;;;;;;15.82;7.22;;;;;;;;;;5074287;28;20032;-52
2021/07/22 13:39:38;;;;;;;13.38;6.32;;;;;;;;;;5073143;28;20032;-52
2021/07/22 13:42:07;;;;;;;14.27;6.70;;;;;;;;;;5072790;28;20052;-52
2021/07/22 13:44:33;;;;;;;16.65;6.43;;;;;;;;;;5073447;28;20063;-52
2021/07/22 13:46:59;;;;;;;12.00;6.70;;;;;;;;;;5073774;28;20016;-51
2021/07/22 13:49:26;;;;;;;16.05;6.75;;;;;;;;;;5073404;28;20039;-51
2021/07/22 13:51:52;;;;;;;14.73;6.10;;;;;;;;;;5072480;28;20039;-51
2021/07/22 13:54:18;;;;;;;17.92;6.45;;;;;;;;;;5073059;28;20032;-52
2021/07/22 13:56:44;;;;;;;13.45;6.25;;;;;;;;;;5091709;28;20494;-52
2021/07/22 13:59:10;;;;;;;12.27;5.75;;;;;;;;;;5092973;28;20032;-51
2021/07/22 14:01:37;;;;;;;11.23;5.60;;;;;;;;;;5091995;28;20462;-52
2021/07/22 14:04:03;;;;;;;12.15;6.13;;;;;;;;;;5073279;28;20096;-52
2021/07/22 14:06:29;;;;;;;15.07;6.28;;;;;;;;;;5073569;28;20134;-52
2021/07/22 14:08:55;;;;;;;10.60;6.28;;;;;;;;;;5072692;28;20056;-51
2021/07/22 14:11:21;;;;;;;14.23;6.80;;;;;;;;;;5072439;28;20294;-51
2021/07/22 14:13:48;;;;;;;11.82;5.80;;;;;;;;;;5072657;28;20353;-52
2021/07/22 14:16:14;;;;;;;12.13;6.47;;;;;;;;;;5073205;28;20028;-52
2021/07/22 14:18:40;;;;;;;12.98;6.35;;;;;;;;;;5072842;28;20365;-51
2021/07/22 14:21:06;;;;;;;14.52;6.55;;;;;;;;;;5072005;28;20028;-51
2021/07/22 14:23:32;;;;;;;10.65;5.75;;;;;;;;;;5073184;28;20108;-52
2021/07/22 14:25:58;;;;;;;12.73;5.82;;;;;;;;;;5080741;28;20400;-52
2021/07/22 14:28:24;;;;;;;14.38;6.47;;;;;;;;;;5091291;28;20032;-52
2021/07/22 14:30:50;;;;;;;12.88;5.95;;;;;;;;;;5092308;28;20028;-51
2021/07/22 14:33:17;;;;;;;11.20;5.60;;;;;;;;;;5093404;28;20123;-52